Time;durP1;ratioP1;P1;durP2;ratioP2;P2;SDS_P1;SDS_P2;PMS_P1;PMS_P2;Temp;Humidity;BMP_temperature;BMP_pressure;BME280_temperature;BME280_humidity;BME280_pressure;Samples;Min_cycle;Max_cycle;Signal;HPM_P1;HPM_P2
2023/08/19 00:02:10;;;;;;;10.80;9.70;;;;;;;21.25;74.78;101090.22;5015242;28;20685;-72
2023/08/19 00:04:36;;;;;;;9.67;8.57;;;;;;;21.20;74.66;101079.84;5015863;28;20725;-72
2023/08/19 00:07:03;;;;;;;10.50;9.40;;;;;;;21.16;74.85;101084.44;5014342;28;20228;-72
2023/08/19 00:09:34;;;;;;;10.60;9.60;;;;;;;21.12;75.17;101083.69;5013187;28;20599;-72
2023/08/19 00:12:02;;;;;;;11.10;9.33;;;;;;;21.09;75.09;101079.09;5014405;28;20213;-72
2023/08/19 00:14:28;;;;;;;11.50;10.30;;;;;;;21.06;75.17;101089.84;5013495;28;20313;-72
2023/08/19 00:16:55;;;;;;;11.37;9.70;;;;;;;21.01;75.90;101093.66;5014888;28;20208;-72
2023/08/19 00:19:21;;;;;;;11.20;10.00;;;;;;;20.97;75.45;101086.75;5012397;28;20197;-71
2023/08/19 00:21:47;;;;;;;11.63;9.60;;;;;;;20.94;75.74;101092.88;5014004;28;20200;-72
2023/08/19 00:24:14;;;;;;;10.03;9.03;;;;;;;20.91;75.92;101082.91;5014145;28;20684;-72
2023/08/19 00:26:40;;;;;;;10.97;9.77;;;;;;;20.87;75.89;101084.78;5014250;28;20207;-72
2023/08/19 00:29:08;;;;;;;11.60;10.03;;;;;;;20.83;76.31;101082.13;5014055;28;20252;-71
2023/08/19 00:31:34;;;;;;;12.77;10.07;;;;;;;20.80;76.28;101079.44;5013484;28;20212;-72
2023/08/19 00:34:00;;;;;;;11.63;10.40;;;;;;;20.75;76.33;101085.91;5016822;28;20204;-72
2023/08/19 00:36:27;;;;;;;11.80;10.23;;;;;;;20.72;76.51;101073.28;5009148;28;20208;-72
2023/08/19 00:38:59;;;;;;;11.10;9.90;;;;;;;20.70;76.57;101077.50;5011512;28;20204;-72
2023/08/19 00:41:25;;;;;;;15.27;11.43;;;;;;;20.65;76.61;101075.94;5004037;28;20233;-72
2023/08/19 00:43:52;;;;;;;13.83;10.07;;;;;;;20.62;76.91;101083.97;5016989;28;20188;-72
2023/08/19 00:46:20;;;;;;;10.27;9.17;;;;;;;20.59;76.83;101077.47;5013033;28;20219;-71
2023/08/19 00:48:47;;;;;;;13.50;11.33;;;;;;;20.57;76.70;101087.81;5008401;28;20726;-72
2023/08/19 00:51:14;;;;;;;12.27;9.80;;;;;;;20.54;76.90;101075.16;5014041;28;20227;-72
2023/08/19 00:53:40;;;;;;;12.57;10.37;;;;;;;20.53;76.93;101075.53;5009737;28;20201;-73
2023/08/19 00:56:06;;;;;;;10.83;9.73;;;;;;;20.50;76.90;101070.94;5017836;28;20223;-72
2023/08/19 00:58:33;;;;;;;11.93;10.37;;;;;;;20.48;76.75;101073.25;5015166;28;20701;-72
2023/08/19 01:00:59;;;;;;;12.13;10.83;;;;;;;20.45;76.75;101066.72;5011550;28;20419;-72
2023/08/19 01:03:27;;;;;;;12.40;10.67;;;;;;;20.43;77.01;101060.94;5014573;28;20290;-72
2023/08/19 01:06:07;;;;;;;13.10;10.40;;;;;;;20.43;76.84;101063.63;5017165;28;20207;-72
2023/08/19 01:08:41;;;;;;;11.80;10.30;;;;;;;20.42;77.27;101054.03;5014584;28;20226;-72
2023/08/19 01:11:16;;;;;;;12.87;11.53;;;;;;;20.42;77.65;101053.28;5012256;28;20227;-72
2023/08/19 01:13:47;;;;;;;13.67;11.50;;;;;;;20.40;77.68;101064.41;5010992;28;20215;-72
2023/08/19 01:16:21;;;;;;;12.67;10.30;;;;;;;20.39;77.66;101056.72;5015460;28;20208;-72
2023/08/19 01:18:49;;;;;;;13.67;11.67;;;;;;;20.37;77.53;101057.09;5008817;28;20218;-72
2023/08/19 01:21:17;;;;;;;12.23;10.50;;;;;;;20.37;77.91;101057.09;5011592;28;20709;-72
2023/08/19 01:23:47;;;;;;;13.50;12.10;;;;;;;20.35;77.94;101055.94;5007178;28;20245;-72
2023/08/19 01:26:17;;;;;;;13.97;11.23;;;;;;;20.33;77.82;101052.88;5014234;28;20257;-72
2023/08/19 01:28:44;;;;;;;14.20;12.43;;;;;;;20.32;77.67;101051.31;5006271;28;20617;-72
2023/08/19 01:31:10;;;;;;;12.87;11.33;;;;;;;20.32;77.88;101051.31;5009492;28;20227;-72
2023/08/19 01:33:36;;;;;;;15.83;11.97;;;;;;;20.28;77.86;101056.69;5007520;28;20234;-72
2023/08/19 01:36:14;;;;;;;14.77;11.93;;;;;;;20.27;78.35;101049.00;5008695;28;20208;-72
2023/08/19 01:38:47;;;;;;;14.33;12.93;;;;;;;20.25;78.37;101062.03;5009779;28;23378;-72
2023/08/19 01:41:20;;;;;;;12.30;11.00;;;;;;;20.21;78.36;101051.31;5009362;28;20915;-72
2023/08/19 01:43:48;;;;;;;12.47;11.17;;;;;;;20.21;78.59;101056.66;5008450;28;20211;-72
2023/08/19 01:46:14;;;;;;;14.17;12.17;;;;;;;20.19;78.60;101058.19;5004821;28;20833;-72
2023/08/19 01:48:41;;;;;;;14.60;11.93;;;;;;;20.17;78.61;101053.19;5005762;28;20335;-72
2023/08/19 01:51:07;;;;;;;12.83;11.53;;;;;;;20.14;78.35;101056.66;5005934;28;21094;-72
2023/08/19 01:53:33;;;;;;;15.23;12.53;;;;;;;20.13;78.20;101062.38;5003552;28;20208;-72
2023/08/19 01:56:00;;;;;;;13.67;11.67;;;;;;;20.11;78.88;101062.75;5011769;28;20207;-72
2023/08/19 01:58:28;;;;;;;14.27;11.57;;;;;;;20.09;78.98;101064.28;5008963;28;21350;-73
2023/08/19 02:00:54;;;;;;;12.77;11.23;;;;;;;20.08;79.15;101066.19;5011272;28;20662;-72
2023/08/19 02:03:22;;;;;;;16.10;11.93;;;;;;;20.06;79.13;101062.31;5011585;28;20200;-71
2023/08/19 02:05:49;;;;;;;15.60;12.10;;;;;;;20.03;79.34;101061.16;5011511;28;20201;-72
2023/08/19 02:08:16;;;;;;;13.10;11.70;;;;;;;20.01;79.33;101060.00;5005213;28;20234;-72
2023/08/19 02:10:43;;;;;;;13.40;11.27;;;;;;;19.99;79.33;101062.28;5010864;28;20713;-72
2023/08/19 02:13:09;;;;;;;13.73;12.00;;;;;;;19.96;79.42;101065.72;5011195;28;20235;-72
2023/08/19 02:15:37;;;;;;;14.40;12.10;;;;;;;19.95;79.17;101066.88;5012818;28;20713;-72
2023/08/19 02:18:04;;;;;;;20.93;13.20;;;;;;;19.92;79.43;101063.03;5004013;28;20199;-72
2023/08/19 02:20:30;;;;;;;16.40;12.23;;;;;;;19.90;79.57;101059.97;5008482;28;20286;-72
2023/08/19 02:23:00;;;;;;;16.30;12.10;;;;;;;19.89;79.65;101060.34;5009739;28;20207;-72
2023/08/19 02:25:26;;;;;;;13.93;11.90;;;;;;;19.88;79.65;101058.81;5009678;28;20209;-72
2023/08/19 02:27:52;;;;;;;14.27;11.83;;;;;;;19.85;79.86;101059.53;5014151;28;20224;-72
2023/08/19 02:30:20;;;;;;;13.37;11.57;;;;;;;19.83;80.33;101053.78;5012659;28;20361;-72
2023/08/19 02:32:48;;;;;;;13.90;11.87;;;;;;;19.80;80.27;101054.53;5013343;28;20211;-72
2023/08/19 02:35:16;;;;;;;15.13;11.47;;;;;;;19.77;80.08;101042.66;5012510;28;20209;-72
2023/08/19 02:37:43;;;;;;;18.77;12.73;;;;;;;19.74;80.09;101048.00;5014618;28;20574;-72
2023/08/19 02:40:10;;;;;;;15.23;11.97;;;;;;;19.72;80.34;101044.94;5001868;28;21021;-72
2023/08/19 02:42:38;;;;;;;14.13;12.47;;;;;;;19.69;80.04;101051.03;5013547;28;20610;-71
2023/08/19 02:45:06;;;;;;;13.83;11.40;;;;;;;19.66;80.14;101046.44;5011877;28;20201;-72
2023/08/19 02:47:32;;;;;;;15.13;12.33;;;;;;;19.64;80.43;101041.44;5014165;28;20220;-72
2023/08/19 02:50:00;;;;;;;12.50;11.20;;;;;;;19.62;80.33;101051.75;5013758;28;20314;-72
2023/08/19 02:52:27;;;;;;;14.57;11.47;;;;;;;19.60;80.15;101045.22;5010030;28;20315;-72
2023/08/19 02:54:53;;;;;;;13.43;11.53;;;;;;;19.56;80.36;101047.16;5018088;28;20188;-72
2023/08/19 02:57:19;;;;;;;12.83;11.33;;;;;;;19.54;80.05;101044.84;5011640;28;20208;-72
2023/08/19 02:59:46;;;;;;;14.77;13.00;;;;;;;19.53;80.19;101051.34;5013231;28;20235;-72
2023/08/19 03:02:12;;;;;;;13.63;12.00;;;;;;;19.51;80.55;101050.94;5015785;28;20222;-72
2023/08/19 03:04:38;;;;;;;15.10;12.40;;;;;;;19.50;80.60;101059.38;5012125;28;20208;-72
2023/08/19 03:07:06;;;;;;;13.03;11.73;;;;;;;19.48;80.70;101061.63;5013860;28;20211;-72
2023/08/19 03:09:32;;;;;;;16.17;12.50;;;;;;;19.47;80.98;101062.78;5011362;28;20243;-72
2023/08/19 03:11:59;;;;;;;14.73;13.10;;;;;;;19.45;80.54;101063.16;5015823;28;20204;-71
2023/08/19 03:14:25;;;;;;;16.77;12.73;;;;;;;19.43;80.50;101067.34;5016458;28;20585;-71
2023/08/19 03:16:51;;;;;;;14.33;12.43;;;;;;;19.42;81.00;101063.13;5011253;28;20212;-72
2023/08/19 03:19:19;;;;;;;15.10;13.50;;;;;;;19.40;81.13;101060.06;5012468;28;20713;-72
2023/08/19 03:21:45;;;;;;;18.53;14.30;;;;;;;19.39;80.88;101064.63;5012138;28;20437;-72
2023/08/19 03:24:13;;;;;;;20.27;16.50;;;;;;;19.38;81.29;101063.09;5006133;28;20580;-72
2023/08/19 03:26:40;;;;;;;18.13;15.03;;;;;;;19.39;81.40;101061.19;5008435;28;20275;-72
2023/08/19 03:29:06;;;;;;;20.13;16.50;;;;;;;19.39;80.86;101061.97;5016368;28;20251;-72
2023/08/19 03:31:33;;;;;;;19.83;16.57;;;;;;;19.40;81.26;101060.06;5012050;28;20205;-72
2023/08/19 03:33:59;;;;;;;20.33;15.53;;;;;;;19.42;81.58;101073.84;5013337;28;20705;-72
2023/08/19 03:36:26;;;;;;;16.57;14.70;;;;;;;19.42;81.14;101071.94;5015154;28;20211;-72
2023/08/19 03:38:52;;;;;;;17.60;14.57;;;;;;;19.44;81.69;101074.22;5015049;28;20196;-72
2023/08/19 03:41:20;;;;;;;18.90;16.03;;;;;;;19.44;81.71;101075.00;5012073;28;20251;-72
2023/08/19 03:43:46;;;;;;;17.83;15.80;;;;;;;19.43;81.75;101081.50;5012802;28;20213;-72
2023/08/19 03:46:13;;;;;;;16.20;14.40;;;;;;;19.44;81.64;101088.41;5018088;28;20212;-72
2023/08/19 03:48:39;;;;;;;18.60;15.13;;;;;;;19.43;81.43;101081.50;5012948;28;20225;-72
2023/08/19 03:51:06;;;;;;;19.23;15.27;;;;;;;19.42;81.60;101079.97;5015025;28;20593;-72
2023/08/19 03:53:32;;;;;;;19.67;16.30;;;;;;;19.43;81.81;101080.72;5012401;28;20214;-72
2023/08/19 03:55:59;;;;;;;18.23;14.73;;;;;;;19.42;81.79;101079.19;5028063;28;20212;-72
2023/08/19 03:58:27;;;;;;;15.87;14.10;;;;;;;19.41;82.00;101085.69;5010267;28;20240;-72
2023/08/19 04:00:53;;;;;;;18.73;15.27;;;;;;;19.40;82.38;101086.84;5011558;28;20224;-72
2023/08/19 04:03:27;;;;;;;16.60;14.83;;;;;;;19.39;82.24;101090.63;5009003;28;20203;-72
2023/08/19 04:05:54;;;;;;;14.70;13.10;;;;;;;19.37;81.91;101088.34;5012389;28;20266;-72
2023/08/19 04:08:20;;;;;;;15.60;13.93;;;;;;;19.37;81.97;101091.03;5010842;28;20232;-72
2023/08/19 04:10:46;;;;;;;16.00;14.30;;;;;;;19.38;81.98;101089.09;5009175;28;20741;-72
2023/08/19 04:13:13;;;;;;;16.93;14.77;;;;;;;19.37;81.82;101090.25;5012989;28;20780;-72
2023/08/19 04:15:40;;;;;;;17.70;14.97;;;;;;;19.37;82.47;101096.38;5011877;28;20223;-71
2023/08/19 04:18:07;;;;;;;18.73;15.20;;;;;;;19.37;82.21;101098.28;5012509;28;20249;-72
2023/08/19 04:20:37;;;;;;;18.07;15.00;;;;;;;19.37;82.13;101099.06;5012911;28;20228;-72
2023/08/19 04:23:03;;;;;;;16.73;14.10;;;;;;;19.38;82.49;101103.28;5012802;28;20216;-72
2023/08/19 04:25:30;;;;;;;18.43;14.87;;;;;;;19.39;82.17;101102.13;5011323;28;20769;-72
2023/08/19 04:27:56;;;;;;;17.70;14.53;;;;;;;19.41;82.31;101107.13;5012066;28;20231;-72
2023/08/19 04:30:24;;;;;;;16.73;14.63;;;;;;;19.42;82.63;101106.75;5008495;28;20805;-72
2023/08/19 04:32:52;;;;;;;15.63;13.93;;;;;;;19.45;82.74;101099.88;5012714;28;20824;-71
2023/08/19 04:35:18;;;;;;;18.90;15.90;;;;;;;19.47;82.54;101101.06;5014236;28;20289;-72
2023/08/19 04:37:45;;;;;;;20.37;15.77;;;;;;;19.49;82.56;101098.75;5011086;28;20791;-72
2023/08/19 04:40:13;;;;;;;18.10;15.83;;;;;;;19.53;82.45;101112.19;5006747;28;20259;-72
2023/08/19 04:42:41;;;;;;;17.70;14.37;;;;;;;19.55;82.27;101115.28;5009175;28;20426;-72
2023/08/19 04:45:10;;;;;;;17.30;14.23;;;;;;;19.58;82.35;101109.94;5014000;28;20290;-72
2023/08/19 04:47:39;;;;;;;16.57;14.43;;;;;;;19.63;82.32;101114.16;5015566;28;20235;-72
2023/08/19 04:50:08;;;;;;;18.83;15.93;;;;;;;19.67;82.39;101113.03;5013669;28;20593;-73
2023/08/19 04:52:35;;;;;;;18.03;16.13;;;;;;;19.74;82.45;101117.69;5009595;28;20315;-71
2023/08/19 04:55:04;;;;;;;21.50;17.13;;;;;;;19.79;82.17;101120.00;5010303;28;20207;-73
2023/08/19 04:57:30;;;;;;;20.10;16.23;;;;;;;19.85;82.01;101115.81;5011928;28;20215;-72
2023/08/19 04:59:57;;;;;;;22.23;17.60;;;;;;;19.90;81.90;101118.16;5012119;28;20294;-73
2023/08/19 05:02:23;;;;;;;18.13;16.17;;;;;;;19.96;81.74;101122.00;5010230;28;20299;-73
2023/08/19 05:04:49;;;;;;;18.10;16.20;;;;;;;20.03;81.94;101122.06;5009115;28;20200;-72
2023/08/19 05:07:17;;;;;;;20.30;16.63;;;;;;;20.09;81.86;101118.69;5011149;28;20286;-73
2023/08/19 05:09:43;;;;;;;18.53;16.57;;;;;;;20.14;81.54;101118.34;5008348;28;20661;-72
2023/08/19 05:12:10;;;;;;;16.43;14.47;;;;;;;20.22;81.68;101121.78;5009122;28;20687;-73
2023/08/19 05:14:36;;;;;;;21.40;16.67;;;;;;;20.26;81.73;101123.34;5012067;28;20250;-72
2023/08/19 05:17:03;;;;;;;18.37;15.80;;;;;;;20.33;81.51;101133.34;5011176;28;20212;-73
2023/08/19 05:19:31;;;;;;;17.43;15.23;;;;;;;20.39;80.80;101124.53;5009275;28;20235;-72
2023/08/19 05:21:57;;;;;;;19.67;15.30;;;;;;;20.46;82.14;101129.94;5008658;28;20253;-73
2023/08/19 05:24:25;;;;;;;18.43;15.13;;;;;;;20.52;81.15;101131.13;5014919;28;20257;-72
2023/08/19 05:26:52;;;;;;;16.53;14.80;;;;;;;20.60;81.74;101137.28;5005954;28;20625;-73
2023/08/19 05:29:19;;;;;;;18.20;14.57;;;;;;;20.66;80.84;101139.22;5012436;28;20224;-72
2023/08/19 05:31:45;;;;;;;16.93;14.80;;;;;;;20.73;80.93;101139.22;5008471;28;20210;-72
2023/08/19 05:34:11;;;;;;;15.47;13.87;;;;;;;20.81;80.63;101135.41;5008392;28;20200;-73
2023/08/19 05:36:38;;;;;;;16.83;15.03;;;;;;;20.90;80.85;101137.78;5010759;28;20374;-72
2023/08/19 05:39:05;;;;;;;16.10;14.40;;;;;;;20.97;80.57;101137.78;5011958;28;20566;-73
2023/08/19 05:41:32;;;;;;;17.80;14.63;;;;;;;21.07;80.51;101139.72;5008496;28;20228;-72
2023/08/19 05:43:59;;;;;;;15.37;13.20;;;;;;;21.15;80.32;101144.69;5009214;28;21170;-72
2023/08/19 05:46:25;;;;;;;15.33;13.43;;;;;;;21.22;80.23;101142.00;5010256;28;20205;-73
2023/08/19 05:48:51;;;;;;;15.57;13.03;;;;;;;21.33;80.47;101144.72;5008478;28;20220;-73
2023/08/19 05:51:18;;;;;;;15.07;13.47;;;;;;;21.40;79.92;101153.53;5010787;28;20238;-72
2023/08/19 05:53:44;;;;;;;18.80;14.10;;;;;;;21.48;79.16;101148.94;5006652;28;20220;-73
2023/08/19 05:56:10;;;;;;;14.33;12.83;;;;;;;21.58;79.19;101153.53;5009216;28;20208;-72
2023/08/19 05:58:38;;;;;;;17.97;13.07;;;;;;;21.66;79.05;101152.34;5007678;28;20330;-72
2023/08/19 06:01:06;;;;;;;14.83;12.83;;;;;;;21.75;78.78;101158.16;5009235;28;20290;-72
2023/08/19 06:03:33;;;;;;;14.80;13.23;;;;;;;21.84;78.53;101145.09;5011066;28;20212;-72
2023/08/19 06:06:03;;;;;;;15.03;13.30;;;;;;;21.92;78.38;101157.34;5008624;28;20204;-73
2023/08/19 06:08:30;;;;;;;14.00;12.60;;;;;;;22.02;78.04;101151.94;5008964;28;20762;-73
2023/08/19 06:11:02;;;;;;;14.57;12.85;;;;;;;22.12;77.76;101147.69;5010427;28;20224;-73
2023/08/19 06:13:28;;;;;;;14.07;12.57;;;;;;;22.21;77.39;101154.22;5015009;28;20889;-72
2023/08/19 06:15:56;;;;;;;13.65;12.25;;;;;;;22.32;77.36;101163.00;5005600;28;20228;-72
2023/08/19 06:18:23;;;;;;;12.90;11.60;;;;;;;22.41;76.99;101159.91;5015385;28;20201;-73
2023/08/19 06:20:50;;;;;;;14.10;12.27;;;;;;;22.50;76.34;101161.03;5012703;28;20383;-73
2023/08/19 06:23:16;;;;;;;13.50;12.07;;;;;;;22.59;76.67;101158.69;5010517;28;20239;-73
2023/08/19 06:25:43;;;;;;;14.73;12.30;;;;;;;22.68;76.29;101155.56;5014056;28;20216;-72
2023/08/19 06:28:09;;;;;;;12.68;11.40;;;;;;;22.76;76.13;101162.47;5010794;28;20624;-72
2023/08/19 06:30:36;;;;;;;15.65;12.43;;;;;;;22.83;75.68;101160.50;5007977;28;20236;-73
2023/08/19 06:33:05;;;;;;;12.95;11.50;;;;;;;22.91;75.55;101164.66;5010649;28;21144;-73
2023/08/19 06:35:32;;;;;;;13.93;11.65;;;;;;;22.98;75.39;101159.22;5015769;28;20439;-72
2023/08/19 06:38:03;;;;;;;12.95;11.65;;;;;;;23.09;75.15;101164.56;5011918;28;20210;-73
2023/08/19 06:40:34;;;;;;;13.88;12.30;;;;;;;23.19;74.90;101161.78;5013354;28;20228;-73
2023/08/19 06:43:00;;;;;;;13.18;11.80;;;;;;;23.31;74.32;101162.50;5009889;28;20215;-73
2023/08/19 06:45:27;;;;;;;15.60;11.60;;;;;;;23.40;74.13;101160.88;5016295;28;20563;-73
2023/08/19 06:47:54;;;;;;;11.82;10.63;;;;;;;23.49;73.38;101163.91;5011788;28;20204;-73
2023/08/19 06:50:23;;;;;;;12.68;11.27;;;;;;;23.62;73.37;101169.56;5012685;28;20224;-72
2023/08/19 06:52:50;;;;;;;13.30;11.70;;;;;;;23.72;72.62;101171.41;5009990;28;20211;-73
2023/08/19 06:55:17;;;;;;;13.63;10.90;;;;;;;23.82;72.74;101173.97;5014526;28;20226;-72
2023/08/19 06:57:49;;;;;;;12.40;11.15;;;;;;;23.95;72.56;101168.88;5014059;28;20216;-72
2023/08/19 07:00:16;;;;;;;11.73;10.32;;;;;;;24.05;71.05;101171.47;5012311;28;20315;-72
2023/08/19 07:02:43;;;;;;;13.00;10.32;;;;;;;24.19;71.67;101170.56;5016579;28;20212;-73
2023/08/19 07:05:13;;;;;;;13.38;10.40;;;;;;;24.30;71.78;101171.94;5018586;28;20208;-72
2023/08/19 07:07:46;;;;;;;11.00;10.00;;;;;;;24.43;71.89;101170.25;5013314;28;20207;-73
2023/08/19 07:10:15;;;;;;;14.77;10.07;;;;;;;24.56;71.71;101175.88;5014263;28;20220;-72
2023/08/19 07:12:42;;;;;;;11.02;9.93;;;;;;;24.68;70.94;101173.44;5015563;28;20262;-73
2023/08/19 07:15:12;;;;;;;10.60;9.60;;;;;;;24.82;69.52;101180.59;5012285;28;20204;-72
2023/08/19 07:17:40;;;;;;;13.65;10.02;;;;;;;24.98;70.44;101186.91;5014831;28;20228;-73
2023/08/19 07:20:09;;;;;;;10.80;9.23;;;;;;;25.14;69.01;101178.97;5015776;28;21541;-72
2023/08/19 07:22:38;;;;;;;11.27;10.10;;;;;;;25.31;68.66;101190.69;5016426;28;20204;-72
2023/08/19 07:25:07;;;;;;;10.88;9.77;;;;;;;25.45;69.59;101187.75;5016522;28;20298;-73
2023/08/19 07:27:35;;;;;;;10.45;9.35;;;;;;;25.58;67.36;101188.72;5018224;28;20205;-73
2023/08/19 07:30:03;;;;;;;9.57;8.63;;;;;;;25.68;68.07;101179.63;5015498;28;20288;-73
2023/08/19 07:32:30;;;;;;;9.85;8.93;;;;;;;25.76;68.64;101176.41;5016520;28;20196;-72
2023/08/19 07:34:57;;;;;;;10.77;9.10;;;;;;;25.86;66.71;101180.09;5013700;28;20231;-72
2023/08/19 07:37:23;;;;;;;12.57;8.77;;;;;;;25.95;66.23;101181.09;5018460;28;20206;-73
2023/08/19 07:39:50;;;;;;;10.18;8.77;;;;;;;26.02;67.36;101172.88;5013085;28;20232;-73
2023/08/19 07:42:17;;;;;;;10.93;9.25;;;;;;;26.11;66.03;101175.78;5015984;28;20208;-73
2023/08/19 07:44:44;;;;;;;10.02;8.85;;;;;;;26.23;65.99;101186.00;5015915;28;20216;-72
2023/08/19 07:47:10;;;;;;;12.73;9.07;;;;;;;26.33;65.95;101182.31;5014810;28;20559;-72
2023/08/19 07:49:38;;;;;;;9.80;8.80;;;;;;;26.48;65.49;101182.78;5014256;28;20679;-72
2023/08/19 07:52:05;;;;;;;10.18;9.18;;;;;;;26.57;64.51;101191.91;5013665;28;20209;-73
2023/08/19 07:54:31;;;;;;;10.13;9.10;;;;;;;26.64;64.06;101186.34;5014997;28;20207;-72
2023/08/19 07:56:58;;;;;;;9.57;8.68;;;;;;;26.72;64.67;101190.41;5015837;28;20208;-72
2023/08/19 07:59:27;;;;;;;9.60;8.60;;;;;;;26.75;64.08;101192.28;5014022;28;20311;-72
2023/08/19 08:01:54;;;;;;;9.32;8.43;;;;;;;26.79;64.99;101189.50;5011670;28;20259;-73
2023/08/19 08:04:21;;;;;;;10.65;8.98;;;;;;;26.80;62.64;101188.31;5013165;28;20497;-73
2023/08/19 08:06:49;;;;;;;10.00;9.10;;;;;;;26.81;63.34;101184.41;5019957;28;20209;-73
2023/08/19 08:09:15;;;;;;;9.57;8.68;;;;;;;26.81;64.88;101187.13;5011620;28;20578;-72
2023/08/19 08:11:45;;;;;;;9.60;8.63;;;;;;;26.79;61.78;101194.94;5014868;28;20211;-73
2023/08/19 08:14:11;;;;;;;9.57;8.63;;;;;;;26.79;62.02;101187.56;5012446;28;20351;-72
2023/08/19 08:16:39;;;;;;;9.75;8.48;;;;;;;26.85;63.10;101196.72;5015688;28;20209;-72
2023/08/19 08:19:05;;;;;;;10.27;9.23;;;;;;;26.92;61.03;101188.44;5016005;28;20603;-73
2023/08/19 08:21:31;;;;;;;10.07;8.95;;;;;;;27.01;62.16;101193.25;5015969;28;20251;-72
2023/08/19 08:23:58;;;;;;;10.32;8.57;;;;;;;27.11;63.26;101201.16;5012162;28;20636;-72
2023/08/19 08:26:25;;;;;;;9.95;8.68;;;;;;;27.22;59.60;101199.00;5017406;28;20817;-72
2023/08/19 08:28:51;;;;;;;11.30;8.98;;;;;;;27.31;60.98;101201.88;5013600;28;20271;-72
2023/08/19 08:31:18;;;;;;;9.43;8.50;;;;;;;27.40;60.04;101204.75;5014722;28;20598;-72
2023/08/19 08:33:46;;;;;;;10.13;9.00;;;;;;;27.47;60.30;101209.25;5016621;28;20696;-73
2023/08/19 08:36:12;;;;;;;9.85;8.45;;;;;;;27.50;59.87;101211.88;5015401;28;20629;-72
2023/08/19 08:38:38;;;;;;;9.73;8.80;;;;;;;27.52;60.82;101208.75;5019596;28;20207;-72
2023/08/19 08:41:07;;;;;;;14.55;9.00;;;;;;;27.53;58.79;101210.25;5014290;28;20235;-73
2023/08/19 08:43:34;;;;;;;9.43;7.97;;;;;;;27.56;60.59;101212.88;5019983;28;20208;-73
2023/08/19 08:46:01;;;;;;;10.18;8.60;;;;;;;27.61;60.47;101206.19;5016122;28;20207;-72
2023/08/19 08:48:31;;;;;;;9.80;8.57;;;;;;;27.65;58.27;101207.63;5017603;28;20219;-72
2023/08/19 08:50:59;;;;;;;10.77;8.63;;;;;;;27.69;57.39;101207.53;5014839;28;20690;-72
2023/08/19 08:53:27;;;;;;;11.40;8.95;;;;;;;27.75;59.01;101203.88;5014925;28;20212;-72
2023/08/19 08:55:55;;;;;;;9.57;8.43;;;;;;;27.81;59.36;101199.47;5015202;28;20207;-72
2023/08/19 08:58:22;;;;;;;9.48;7.88;;;;;;;27.84;58.50;101201.34;5017069;28;20207;-72
2023/08/19 09:00:49;;;;;;;8.95;8.15;;;;;;;27.86;60.15;101195.50;5015368;28;20230;-73
2023/08/19 09:03:20;;;;;;;9.40;8.45;;;;;;;27.87;59.22;101203.19;5014302;28;20227;-72
2023/08/19 09:05:51;;;;;;;9.35;8.35;;;;;;;27.89;59.02;101203.53;5016316;28;20220;-72
2023/08/19 09:08:27;;;;;;;12.88;9.55;;;;;;;27.90;59.70;101204.28;5011738;28;20196;-72
2023/08/19 09:10:53;;;;;;;8.93;8.02;;;;;;;27.93;58.62;101204.22;5013851;28;20717;-72
2023/08/19 09:13:24;;;;;;;8.75;7.95;;;;;;;27.97;58.30;101201.41;5016762;28;20226;-72
2023/08/19 09:15:51;;;;;;;8.45;7.65;;;;;;;28.04;58.83;101196.56;5013706;28;20708;-72
2023/08/19 09:18:18;;;;;;;9.48;7.72;;;;;;;28.13;58.00;101206.78;5013079;28;20208;-72
2023/08/19 09:20:45;;;;;;;8.13;7.43;;;;;;;28.19;58.42;101197.69;5011351;28;20228;-72
2023/08/19 09:23:12;;;;;;;9.98;8.30;;;;;;;28.25;57.76;101201.41;5017743;28;20578;-72
2023/08/19 09:25:40;;;;;;;8.30;7.53;;;;;;;28.32;57.19;101206.63;5014520;28;20203;-73
2023/08/19 09:28:07;;;;;;;8.68;7.82;;;;;;;28.39;56.96;101198.28;5013423;28;20261;-72
2023/08/19 09:30:34;;;;;;;9.65;8.30;;;;;;;28.47;56.41;101204.28;5015591;28;20218;-72
2023/08/19 09:33:01;;;;;;;8.70;7.72;;;;;;;28.55;56.69;101198.25;5014066;28;20204;-72
2023/08/19 09:35:35;;;;;;;9.40;8.50;;;;;;;28.63;54.44;101202.25;5014918;28;20219;-72
2023/08/19 09:38:01;;;;;;;8.30;7.53;;;;;;;28.71;55.37;101200.88;5006976;28;20207;-72
2023/08/19 09:40:27;;;;;;;8.13;7.32;;;;;;;28.76;54.59;101197.63;5015579;28;20312;-72
2023/08/19 09:42:57;;;;;;;8.73;7.82;;;;;;;28.83;56.32;101193.91;5021563;28;20591;-72
2023/08/19 09:45:26;;;;;;;7.93;7.15;;;;;;;28.93;54.04;101198.25;5017376;28;20215;-72
2023/08/19 09:47:54;;;;;;;8.43;7.63;;;;;;;28.99;55.92;101205.47;5015651;28;20204;-73
2023/08/19 09:50:22;;;;;;;7.65;6.85;;;;;;;29.08;55.44;101199.38;5014124;28;20223;-73
2023/08/19 09:52:55;;;;;;;6.97;6.38;;;;;;;29.13;53.41;101193.38;5016321;28;20222;-73
2023/08/19 09:55:25;;;;;;;7.70;7.05;;;;;;;29.20;53.17;101193.19;5019051;28;20206;-73
2023/08/19 09:57:51;;;;;;;6.80;6.20;;;;;;;29.28;53.18;101197.94;5021923;28;20693;-73
2023/08/19 10:00:19;;;;;;;7.00;6.30;;;;;;;29.37;52.05;101194.56;5014686;28;20243;-72
2023/08/19 10:02:46;;;;;;;6.88;6.13;;;;;;;29.45;52.47;101195.84;5016204;28;20200;-72
2023/08/19 10:05:12;;;;;;;6.85;6.25;;;;;;;29.52;50.93;101198.34;5018697;28;20213;-73
2023/08/19 10:07:41;;;;;;;7.47;6.60;;;;;;;29.59;50.44;101203.56;5017490;28;20220;-73
2023/08/19 10:10:12;;;;;;;7.10;6.50;;;;;;;29.67;51.79;101205.59;5021137;28;20434;-73
2023/08/19 10:12:41;;;;;;;7.15;6.45;;;;;;;29.73;50.71;101203.09;5020982;28;20575;-73
2023/08/19 10:15:12;;;;;;;6.30;5.80;;;;;;;29.78;49.57;101197.84;5017899;28;20204;-72
2023/08/19 10:17:42;;;;;;;7.38;6.53;;;;;;;29.83;49.52;101191.81;5017134;28;20227;-73
2023/08/19 10:20:12;;;;;;;10.77;7.97;;;;;;;29.90;50.36;101196.28;5020012;28;20210;-73
2023/08/19 10:22:45;;;;;;;6.57;5.97;;;;;;;30.00;47.28;101195.16;5017365;28;20218;-72
2023/08/19 10:25:14;;;;;;;6.88;6.28;;;;;;;30.06;49.10;101187.91;5020696;28;20212;-73
2023/08/19 10:27:43;;;;;;;7.32;6.63;;;;;;;30.09;49.42;101195.22;5015195;28;20204;-72
2023/08/19 10:30:31;;;;;;;7.10;6.40;;;;;;;30.16;49.73;101187.59;5016882;28;20242;-72
2023/08/19 10:33:03;;;;;;;6.20;5.70;;;;;;;30.24;48.71;101191.56;5017258;28;20196;-72
2023/08/19 10:35:50;;;;;;;6.45;5.85;;;;;;;30.32;46.56;101190.09;5014975;28;20462;-72
2023/08/19 10:38:17;;;;;;;7.05;6.35;;;;;;;30.39;47.34;101184.38;5015413;28;21339;-73
2023/08/19 10:41:01;;;;;;;7.68;6.15;;;;;;;30.44;47.79;101183.81;5017457;28;20230;-72
2023/08/19 10:43:27;;;;;;;8.07;6.68;;;;;;;30.50;46.94;101176.56;5019191;28;20876;-73
2023/08/19 10:45:57;;;;;;;6.68;6.00;;;;;;;30.56;44.26;101184.94;5018011;28;20215;-72
2023/08/19 10:48:32;;;;;;;6.90;6.20;;;;;;;30.60;46.60;101175.41;5015558;28;20199;-73
2023/08/19 10:50:58;;;;;;;6.15;5.55;;;;;;;30.65;46.17;101176.81;5017895;28;20219;-73
2023/08/19 10:53:26;;;;;;;6.22;5.72;;;;;;;30.71;46.32;101178.50;5015625;28;20200;-72
2023/08/19 10:55:52;;;;;;;6.55;5.88;;;;;;;30.76;45.20;101171.72;5016833;28;20701;-73
2023/08/19 10:58:20;;;;;;;7.18;6.00;;;;;;;30.80;43.72;101175.06;5015831;28;20208;-72
2023/08/19 11:00:48;;;;;;;8.52;6.35;;;;;;;30.88;47.79;101173.59;5015981;28;20224;-72
2023/08/19 11:03:15;;;;;;;6.32;5.82;;;;;;;30.91;45.55;101176.16;5015025;28;20204;-73
2023/08/19 11:05:48;;;;;;;7.18;6.13;;;;;;;30.93;44.33;101171.03;5022067;28;20199;-72
2023/08/19 11:08:14;;;;;;;7.57;6.25;;;;;;;30.97;44.74;101171.63;5012810;28;20216;-73
2023/08/19 11:10:45;;;;;;;5.90;5.40;;;;;;;31.02;44.10;101173.03;5016564;28;20228;-73
2023/08/19 11:13:11;;;;;;;6.40;5.18;;;;;;;31.02;41.98;101164.84;5014232;28;20699;-73
2023/08/19 11:15:39;;;;;;;6.30;5.70;;;;;;;31.01;43.43;101163.34;5013903;28;20287;-73
2023/08/19 11:18:05;;;;;;;7.72;5.35;;;;;;;31.03;44.90;101171.81;5010086;28;20293;-73